Terminal Aerodrome Forecast
Issued by NWS

Home | Current Version | Previous Version | Text Only | Print | Product List | Glossary On
Versions: 1 2 3 4 5 6 7 8 9 10 11 12 13 14 15 16 17
922
FTUS42 TJSJ 261806 AAB
TAFJBQ
TAF AMD
TJBQ 261806Z 2618/2718 06012KT P6SM VCTS SCT025CB BKN035
      TEMPO 2618/2620 VRB15G25KT 4SM TSRA BKN025CB
     FM262300 10008KT P6SM FEW025 SCT035
     FM271400 08013KT P6SM SCT025
      AMD NOT SKED 2702/2711=

USA.gov is the U.S. government's official web portal to all federal, state and local government web resources and services.